sensor_id;sensor_type;location;lat;lon;timestamp;pressure;altitude;pressure_sealevel;temperature;humidity
7297;BME280;40758;54.038;11.684;2023-05-24T00:02:14;101617.91;;;8.69;78.94
7297;BME280;40758;54.038;11.684;2023-05-24T00:04:41;101616.22;;;8.68;79.50
7297;BME280;40758;54.038;11.684;2023-05-24T00:07:08;101608.03;;;8.62;79.67
7297;BME280;40758;54.038;11.684;2023-05-24T00:09:35;101629.03;;;8.60;79.86
7297;BME280;40758;54.038;11.684;2023-05-24T00:12:02;101627.38;;;8.59;80.33
7297;BME280;40758;54.038;11.684;2023-05-24T00:14:29;101611.28;;;8.57;80.54
7297;BME280;40758;54.038;11.684;2023-05-24T00:16:55;101627.16;;;8.60;80.34
7297;BME280;40758;54.038;11.684;2023-05-24T00:19:23;101623.63;;;8.60;80.70
7297;BME280;40758;54.038;11.684;2023-05-24T00:21:50;101601.59;;;8.48;80.45
7297;BME280;40758;54.038;11.684;2023-05-24T00:24:17;101617.28;;;8.52;81.16
7297;BME280;40758;54.038;11.684;2023-05-24T00:26:44;101613.06;;;8.50;80.95
7297;BME280;40758;54.038;11.684;2023-05-24T00:29:11;101603.81;;;8.44;81.16
7297;BME280;40758;54.038;11.684;2023-05-24T00:31:37;101598.03;;;8.47;81.74
7297;BME280;40758;54.038;11.684;2023-05-24T00:34:05;101606.63;;;8.51;81.89
7297;BME280;40758;54.038;11.684;2023-05-24T00:36:32;101593.00;;;8.44;81.81
7297;BME280;40758;54.038;11.684;2023-05-24T00:38:59;101595.97;;;8.49;82.08
7297;BME280;40758;54.038;11.684;2023-05-24T00:41:26;101605.59;;;8.52;82.03
7297;BME280;40758;54.038;11.684;2023-05-24T00:43:53;101593.09;;;8.51;81.95
7297;BME280;40758;54.038;11.684;2023-05-24T00:46:31;101596.25;;;8.55;82.18
7297;BME280;40758;54.038;11.684;2023-05-24T00:48:59;101585.31;;;8.63;82.21
7297;BME280;40758;54.038;11.684;2023-05-24T00:51:27;101589.34;;;8.67;82.30
7297;BME280;40758;54.038;11.684;2023-05-24T00:53:54;101553.34;;;8.37;82.28
7297;BME280;40758;54.038;11.684;2023-05-24T00:56:21;101592.06;;;8.67;82.41
7297;BME280;40758;54.038;11.684;2023-05-24T00:58:50;101576.69;;;8.52;82.29
7297;BME280;40758;54.038;11.684;2023-05-24T01:01:20;101587.88;;;8.64;82.27
7297;BME280;40758;54.038;11.684;2023-05-24T01:03:52;101592.06;;;8.67;82.57
7297;BME280;40758;54.038;11.684;2023-05-24T01:06:20;101584.78;;;8.67;82.33
7297;BME280;40758;54.038;11.684;2023-05-24T01:09:17;101586.44;;;8.68;82.27
7297;BME280;40758;54.038;11.684;2023-05-24T01:12:10;101593.53;;;8.69;82.24
7297;BME280;40758;54.038;11.684;2023-05-24T01:17:20;101595.88;;;8.72;82.18
7297;BME280;40758;54.038;11.684;2023-05-24T01:19:57;101588.41;;;8.74;82.65
7297;BME280;40758;54.038;11.684;2023-05-24T01:28:02;101594.94;;;8.80;82.44
7297;BME280;40758;54.038;11.684;2023-05-24T01:30:29;101587.00;;;8.78;82.47
7297;BME280;40758;54.038;11.684;2023-05-24T01:32:56;101574.69;;;8.61;82.60
7297;BME280;40758;54.038;11.684;2023-05-24T01:35:23;101595.88;;;8.72;83.00
7297;BME280;40758;54.038;11.684;2023-05-24T01:37:50;101586.00;;;8.65;83.38
7297;BME280;40758;54.038;11.684;2023-05-24T01:40:16;101589.16;;;8.68;83.38
7297;BME280;40758;54.038;11.684;2023-05-24T01:42:48;101591.22;;;8.66;83.49
7297;BME280;40758;54.038;11.684;2023-05-24T01:53:19;101595.88;;;8.72;83.88
7297;BME280;40758;54.038;11.684;2023-05-24T01:55:51;101591.31;;;8.73;83.67
7297;BME280;40758;54.038;11.684;2023-05-24T01:58:22;101589.72;;;8.78;83.49
7297;BME280;40758;54.038;11.684;2023-05-24T02:00:50;101592.22;;;8.80;83.18
7297;BME280;40758;54.038;11.684;2023-05-24T02:03:17;101587.28;;;8.84;83.40
7297;BME280;40758;54.038;11.684;2023-05-24T02:05:46;101590.63;;;8.86;83.27
7297;BME280;40758;54.038;11.684;2023-05-24T02:08:13;101591.94;;;8.90;83.30
7297;BME280;40758;54.038;11.684;2023-05-24T02:10:41;101570.56;;;8.80;83.33
7297;BME280;40758;54.038;11.684;2023-05-24T02:13:08;101590.34;;;8.95;83.15
7297;BME280;40758;54.038;11.684;2023-05-24T02:15:37;101590.34;;;8.95;83.09
7297;BME280;40758;54.038;11.684;2023-05-24T02:18:04;101587.63;;;8.95;82.53
7297;BME280;40758;54.038;11.684;2023-05-24T02:20:33;101585.00;;;9.02;82.85
7297;BME280;40758;54.038;11.684;2023-05-24T02:23:03;101590.41;;;9.02;82.39
7297;BME280;40758;54.038;11.684;2023-05-24T02:25:30;101589.56;;;9.01;82.52
7297;BME280;40758;54.038;11.684;2023-05-24T02:27:58;101585.81;;;9.02;82.31
7297;BME280;40758;54.038;11.684;2023-05-24T02:30:25;101596.31;;;9.05;82.46
7297;BME280;40758;54.038;11.684;2023-05-24T02:32:52;101595.91;;;9.09;82.20
7297;BME280;40758;54.038;11.684;2023-05-24T02:35:19;101597.78;;;9.08;82.28
7297;BME280;40758;54.038;11.684;2023-05-24T02:37:46;101589.56;;;9.01;82.15
7297;BME280;40758;54.038;11.684;2023-05-24T02:40:13;101600.94;;;9.12;82.18
7297;BME280;40758;54.038;11.684;2023-05-24T02:42:40;101594.31;;;9.14;82.07
7297;BME280;40758;54.038;11.684;2023-05-24T02:45:07;101595.59;;;9.18;82.17
7297;BME280;40758;54.038;11.684;2023-05-24T02:47:34;101596.81;;;9.16;82.05
7297;BME280;40758;54.038;11.684;2023-05-24T02:50:01;101601.66;;;9.20;81.91
7297;BME280;40758;54.038;11.684;2023-05-24T02:52:28;101616.88;;;9.21;81.90
7297;BME280;40758;54.038;11.684;2023-05-24T02:54:55;101603.16;;;9.23;81.83
7297;BME280;40758;54.038;11.684;2023-05-24T02:57:22;101603.34;;;9.21;81.96
7297;BME280;40758;54.038;11.684;2023-05-24T02:59:48;101606.03;;;9.21;81.88
7297;BME280;40758;54.038;11.684;2023-05-24T03:02:15;101606.72;;;9.23;82.19
7297;BME280;40758;54.038;11.684;2023-05-24T03:04:43;101591.78;;;9.13;81.81
7297;BME280;40758;54.038;11.684;2023-05-24T03:07:10;101608.84;;;9.28;81.97
7297;BME280;40758;54.038;11.684;2023-05-24T03:09:36;101619.03;;;9.26;82.00
7297;BME280;40758;54.038;11.684;2023-05-24T03:12:03;101613.59;;;9.26;82.02
7297;BME280;40758;54.038;11.684;2023-05-24T03:14:31;101621.94;;;9.24;82.04
7297;BME280;40758;54.038;11.684;2023-05-24T03:16:57;101620.63;;;9.20;82.15
7297;BME280;40758;54.038;11.684;2023-05-24T03:19:24;101618.13;;;9.19;82.62
7297;BME280;40758;54.038;11.684;2023-05-24T03:21:51;101620.00;;;9.18;82.46
7297;BME280;40758;54.038;11.684;2023-05-24T03:24:19;101617.91;;;9.20;82.56
7297;BME280;40758;54.038;11.684;2023-05-24T03:26:46;101615.22;;;9.20;82.97
7297;BME280;40758;54.038;11.684;2023-05-24T03:29:12;101614.38;;;9.20;82.71
7297;BME280;40758;54.038;11.684;2023-05-24T03:31:40;101596.75;;;9.09;82.88
7297;BME280;40758;54.038;11.684;2023-05-24T03:34:07;101623.75;;;9.17;83.00
7297;BME280;40758;54.038;11.684;2023-05-24T03:36:33;101622.91;;;9.17;83.22
7297;BME280;40758;54.038;11.684;2023-05-24T03:39:00;101607.13;;;9.05;83.37
7297;BME280;40758;54.038;11.684;2023-05-24T03:41:29;101629.25;;;9.09;83.47
7297;BME280;40758;54.038;11.684;2023-05-24T03:43:56;101628.63;;;9.07;83.82
7297;BME280;40758;54.038;11.684;2023-05-24T03:46:23;101609.50;;;8.94;84.40
7297;BME280;40758;54.038;11.684;2023-05-24T03:48:50;101626.66;;;9.01;84.38
7297;BME280;40758;54.038;11.684;2023-05-24T03:51:16;101629.16;;;9.02;84.56
7297;BME280;40758;54.038;11.684;2023-05-24T03:53:43;101616.59;;;8.95;84.82
7297;BME280;40758;54.038;11.684;2023-05-24T03:56:11;101632.44;;;8.98;84.98
7297;BME280;40758;54.038;11.684;2023-05-24T03:58:38;101637.09;;;9.04;84.77
7297;BME280;40758;54.038;11.684;2023-05-24T04:01:05;101633.00;;;9.08;84.90
7297;BME280;40758;54.038;11.684;2023-05-24T04:03:32;101639.25;;;9.09;85.03
7297;BME280;40758;54.038;11.684;2023-05-24T04:06:00;101638.41;;;9.08;84.74
7297;BME280;40758;54.038;11.684;2023-05-24T04:08:26;101634.50;;;9.11;85.09
7297;BME280;40758;54.038;11.684;2023-05-24T04:10:53;101640.75;;;9.11;85.06
7297;BME280;40758;54.038;11.684;2023-05-24T04:13:20;101626.75;;;9.07;85.07
7297;BME280;40758;54.038;11.684;2023-05-24T04:15:46;101636.44;;;9.17;85.20
7297;BME280;40758;54.038;11.684;2023-05-24T04:18:13;101643.53;;;9.18;85.13
7297;BME280;40758;54.038;11.684;2023-05-24T04:20:40;101648.13;;;9.17;85.07
7297;BME280;40758;54.038;11.684;2023-05-24T04:23:07;101651.28;;;9.21;85.35
7297;BME280;40758;54.038;11.684;2023-05-24T04:25:34;101648.84;;;9.26;85.26
7297;BME280;40758;54.038;11.684;2023-05-24T04:28:00;101655.75;;;9.28;85.35
7297;BME280;40758;54.038;11.684;2023-05-24T04:30:31;101657.81;;;9.26;85.23
7297;BME280;40758;54.038;11.684;2023-05-24T04:32:58;101663.91;;;9.28;85.10
7297;BME280;40758;54.038;11.684;2023-05-24T04:35:25;101667.88;;;9.32;85.46
7297;BME280;40758;54.038;11.684;2023-05-24T04:37:51;101674.59;;;9.37;85.42
7297;BME280;40758;54.038;11.684;2023-05-24T04:40:18;101668.81;;;9.40;85.41
7297;BME280;40758;54.038;11.684;2023-05-24T04:42:49;101665.44;;;9.38;85.61
7297;BME280;40758;54.038;11.684;2023-05-24T04:45:16;101671.34;;;9.41;85.54
7297;BME280;40758;54.038;11.684;2023-05-24T04:47:42;101660.69;;;9.40;85.94
7297;BME280;40758;54.038;11.684;2023-05-24T04:50:15;101671.78;;;9.45;85.63
7297;BME280;40758;54.038;11.684;2023-05-24T04:52:42;101672.72;;;9.52;85.95
7297;BME280;40758;54.038;11.684;2023-05-24T04:55:09;101677.28;;;9.51;86.09
7297;BME280;40758;54.038;11.684;2023-05-24T04:57:36;101655.84;;;9.35;85.95
7297;BME280;40758;54.038;11.684;2023-05-24T05:00:03;101686.38;;;9.44;85.95
7297;BME280;40758;54.038;11.684;2023-05-24T05:02:31;101670.44;;;9.34;86.30
7297;BME280;40758;54.038;11.684;2023-05-24T05:04:58;101686.94;;;9.39;86.27
7297;BME280;40758;54.038;11.684;2023-05-24T05:07:25;101699.00;;;9.37;86.37
7297;BME280;40758;54.038;11.684;2023-05-24T05:09:51;101697.59;;;9.41;86.38
7297;BME280;40758;54.038;11.684;2023-05-24T05:12:18;101701.72;;;9.37;86.58
7297;BME280;40758;54.038;11.684;2023-05-24T05:14:45;101703.38;;;9.38;86.45
7297;BME280;40758;54.038;11.684;2023-05-24T05:17:11;101693.84;;;9.42;86.61
7297;BME280;40758;54.038;11.684;2023-05-24T05:19:39;101703.94;;;9.48;86.89
7297;BME280;40758;54.038;11.684;2023-05-24T05:22:06;101706.09;;;9.52;86.71
7297;BME280;40758;54.038;11.684;2023-05-24T05:24:33;101702.41;;;9.60;86.77
7297;BME280;40758;54.038;11.684;2023-05-24T05:27:01;101711.06;;;9.70;86.89
7297;BME280;40758;54.038;11.684;2023-05-24T05:29:28;101681.47;;;9.54;86.63
7297;BME280;40758;54.038;11.684;2023-05-24T05:31:54;101705.78;;;9.83;86.80
7297;BME280;40758;54.038;11.684;2023-05-24T05:34:21;101671.44;;;9.69;86.59
7297;BME280;40758;54.038;11.684;2023-05-24T05:36:48;101708.72;;;10.03;86.48
7297;BME280;40758;54.038;11.684;2023-05-24T05:39:15;101702.41;;;10.03;86.26
7297;BME280;40758;54.038;11.684;2023-05-24T05:41:41;101706.50;;;10.13;86.38
7297;BME280;40758;54.038;11.684;2023-05-24T05:44:12;101713.75;;;10.28;86.19
7297;BME280;40758;54.038;11.684;2023-05-24T05:46:39;101680.44;;;10.19;85.80
7297;BME280;40758;54.038;11.684;2023-05-24T05:49:08;101719.03;;;10.36;85.79
7297;BME280;40758;54.038;11.684;2023-05-24T05:51:36;101701.00;;;10.50;86.11
7297;BME280;40758;54.038;11.684;2023-05-24T05:54:04;101702.31;;;10.60;85.75
7297;BME280;40758;54.038;11.684;2023-05-24T05:56:31;101680.25;;;10.42;85.67
7297;BME280;40758;54.038;11.684;2023-05-24T05:58:58;101738.16;;;10.77;85.62
7297;BME280;40758;54.038;11.684;2023-05-24T06:01:25;101697.31;;;10.64;85.17
7297;BME280;40758;54.038;11.684;2023-05-24T06:03:51;101733.38;;;10.79;84.90
7297;BME280;40758;54.038;11.684;2023-05-24T06:06:20;101738.19;;;10.84;85.10
7297;BME280;40758;54.038;11.684;2023-05-24T06:08:47;101736.34;;;10.84;84.40
7297;BME280;40758;54.038;11.684;2023-05-24T06:11:13;101741.56;;;10.86;84.36
7297;BME280;40758;54.038;11.684;2023-05-24T06:13:40;101745.38;;;10.91;84.16
7297;BME280;40758;54.038;11.684;2023-05-24T06:16:08;101747.13;;;11.06;84.34
7297;BME280;40758;54.038;11.684;2023-05-24T06:18:35;101744.69;;;11.17;84.64
7297;BME280;40758;54.038;11.684;2023-05-24T06:21:03;101707.22;;;10.78;83.80
7297;BME280;40758;54.038;11.684;2023-05-24T06:23:29;101736.75;;;10.88;82.99
7297;BME280;40758;54.038;11.684;2023-05-24T06:25:57;101753.09;;;10.95;83.64
7297;BME280;40758;54.038;11.684;2023-05-24T06:28:24;101761.28;;;11.01;83.44
7297;BME280;40758;54.038;11.684;2023-05-24T06:30:51;101765.91;;;11.01;83.26
7297;BME280;40758;54.038;11.684;2023-05-24T06:33:18;101758.53;;;10.95;83.48
7297;BME280;40758;54.038;11.684;2023-05-24T06:35:45;101767.34;;;10.97;83.54
7297;BME280;40758;54.038;11.684;2023-05-24T06:38:12;101771.66;;;10.84;83.19
7297;BME280;40758;54.038;11.684;2023-05-24T06:40:39;101777.81;;;10.72;82.90
7297;BME280;40758;54.038;11.684;2023-05-24T06:43:06;101771.53;;;10.71;83.39
7297;BME280;40758;54.038;11.684;2023-05-24T06:45:33;101777.56;;;10.66;83.11
7297;BME280;40758;54.038;11.684;2023-05-24T06:48:00;101778.59;;;10.65;82.97
7297;BME280;40758;54.038;11.684;2023-05-24T06:50:27;101771.97;;;10.68;83.25
7297;BME280;40758;54.038;11.684;2023-05-24T06:52:53;101777.03;;;10.78;83.01
7297;BME280;40758;54.038;11.684;2023-05-24T06:55:20;101785.03;;;10.86;83.11
7297;BME280;40758;54.038;11.684;2023-05-24T06:57:47;101782.63;;;10.98;83.31
7297;BME280;40758;54.038;11.684;2023-05-24T07:00:14;101795.06;;;11.13;83.63
7297;BME280;40758;54.038;11.684;2023-05-24T07:02:41;101794.47;;;11.25;82.88
7297;BME280;40758;54.038;11.684;2023-05-24T07:05:08;101792.84;;;11.30;82.38
7297;BME280;40758;54.038;11.684;2023-05-24T07:07:38;101769.13;;;11.17;82.26
7297;BME280;40758;54.038;11.684;2023-05-24T07:10:10;101796.22;;;11.32;82.13
7297;BME280;40758;54.038;11.684;2023-05-24T07:12:37;101799.97;;;11.31;81.95
7297;BME280;40758;54.038;11.684;2023-05-24T07:15:06;101797.38;;;11.16;81.54
7297;BME280;40758;54.038;11.684;2023-05-24T07:17:36;101775.53;;;11.03;81.73
7297;BME280;40758;54.038;11.684;2023-05-24T07:20:03;101811.41;;;11.20;81.72
7297;BME280;40758;54.038;11.684;2023-05-24T07:22:35;101816.59;;;11.15;81.72
7297;BME280;40758;54.038;11.684;2023-05-24T07:25:02;101782.91;;;10.81;81.45
7297;BME280;40758;54.038;11.684;2023-05-24T07:27:30;101832.25;;;11.13;81.52
7297;BME280;40758;54.038;11.684;2023-05-24T07:29:56;101825.63;;;11.22;81.76
7297;BME280;40758;54.038;11.684;2023-05-24T07:32:24;101784.91;;;11.01;81.64
7297;BME280;40758;54.038;11.684;2023-05-24T07:34:51;101825.03;;;11.27;81.40
7297;BME280;40758;54.038;11.684;2023-05-24T07:37:17;101829.72;;;11.39;81.59
7297;BME280;40758;54.038;11.684;2023-05-24T07:39:44;101832.91;;;11.50;81.29
7297;BME280;40758;54.038;11.684;2023-05-24T07:42:11;101832.41;;;11.74;81.02
7297;BME280;40758;54.038;11.684;2023-05-24T07:44:38;101831.28;;;11.96;80.80
7297;BME280;40758;54.038;11.684;2023-05-24T07:47:05;101828.41;;;12.18;80.58
7297;BME280;40758;54.038;11.684;2023-05-24T07:49:32;101847.97;;;12.48;80.00
7297;BME280;40758;54.038;11.684;2023-05-24T07:51:58;101845.25;;;12.48;79.31
7297;BME280;40758;54.038;11.684;2023-05-24T07:54:25;101847.34;;;12.52;78.91
7297;BME280;40758;54.038;11.684;2023-05-24T07:56:52;101836.00;;;12.42;78.73
7297;BME280;40758;54.038;11.684;2023-05-24T07:59:19;101841.66;;;12.41;78.09
7297;BME280;40758;54.038;11.684;2023-05-24T08:01:45;101841.44;;;12.36;77.97
7297;BME280;40758;54.038;11.684;2023-05-24T08:04:13;101856.31;;;12.40;78.19
7297;BME280;40758;54.038;11.684;2023-05-24T08:06:40;101848.34;;;12.38;77.46
7297;BME280;40758;54.038;11.684;2023-05-24T08:09:07;101855.91;;;12.36;77.63
7297;BME280;40758;54.038;11.684;2023-05-24T08:11:34;101855.28;;;12.47;77.67
7297;BME280;40758;54.038;11.684;2023-05-24T08:14:01;101869.38;;;12.64;77.57
7297;BME280;40758;54.038;11.684;2023-05-24T08:16:28;101855.53;;;12.86;77.01
7297;BME280;40758;54.038;11.684;2023-05-24T08:18:54;101858.03;;;13.14;76.61
7297;BME280;40758;54.038;11.684;2023-05-24T08:21:21;101821.34;;;13.16;76.07
7297;BME280;40758;54.038;11.684;2023-05-24T08:23:49;101854.75;;;13.83;75.67
7297;BME280;40758;54.038;11.684;2023-05-24T08:26:16;101858.72;;;14.32;75.40
7297;BME280;40758;54.038;11.684;2023-05-24T08:28:44;101847.34;;;14.98;74.70
7297;BME280;40758;54.038;11.684;2023-05-24T08:31:11;101844.00;;;14.96;72.81
7297;BME280;40758;54.038;11.684;2023-05-24T08:33:39;101844.88;;;14.90;71.23
7297;BME280;40758;54.038;11.684;2023-05-24T08:36:06;101850.59;;;15.13;71.67
7297;BME280;40758;54.038;11.684;2023-05-24T08:38:33;101853.59;;;16.34;71.22
7297;BME280;40758;54.038;11.684;2023-05-24T08:41:04;101854.50;;;16.76;68.19
7297;BME280;40758;54.038;11.684;2023-05-24T08:43:33;101859.50;;;16.49;66.34
7297;BME280;40758;54.038;11.684;2023-05-24T08:46:01;101866.72;;;16.32;66.69
7297;BME280;40758;54.038;11.684;2023-05-24T08:48:29;101862.06;;;16.32;66.55
7297;BME280;40758;54.038;11.684;2023-05-24T08:50:57;101863.22;;;15.94;65.28
7297;BME280;40758;54.038;11.684;2023-05-24T08:53:25;101875.16;;;15.63;65.38
7297;BME280;40758;54.038;11.684;2023-05-24T08:55:53;101875.50;;;15.49;65.56
7297;BME280;40758;54.038;11.684;2023-05-24T08:58:21;101877.75;;;15.33;65.24
7297;BME280;40758;54.038;11.684;2023-05-24T09:00:48;101877.06;;;15.38;64.98
7297;BME280;40758;54.038;11.684;2023-05-24T09:03:15;101862.38;;;15.76;65.49
7297;BME280;40758;54.038;11.684;2023-05-24T09:05:43;101882.03;;;16.93;64.62
7297;BME280;40758;54.038;11.684;2023-05-24T09:08:10;101884.91;;;16.86;62.92
7297;BME280;40758;54.038;11.684;2023-05-24T09:10:38;101883.84;;;16.57;62.29
7297;BME280;40758;54.038;11.684;2023-05-24T09:13:19;101876.44;;;15.98;61.41
7297;BME280;40758;54.038;11.684;2023-05-24T09:15:45;101890.06;;;15.67;62.55
7297;BME280;40758;54.038;11.684;2023-05-24T09:18:12;101888.44;;;15.16;62.40
7297;BME280;40758;54.038;11.684;2023-05-24T09:20:42;101893.25;;;14.96;63.15
7297;BME280;40758;54.038;11.684;2023-05-24T09:23:12;101887.06;;;14.76;63.65
7297;BME280;40758;54.038;11.684;2023-05-24T09:25:44;101892.63;;;14.62;63.53
7297;BME280;40758;54.038;11.684;2023-05-24T09:28:13;101891.44;;;14.52;64.46
7297;BME280;40758;54.038;11.684;2023-05-24T09:30:45;101892.94;;;14.41;64.63
7297;BME280;40758;54.038;11.684;2023-05-24T09:33:22;101885.56;;;14.48;65.25
7297;BME280;40758;54.038;11.684;2023-05-24T09:35:49;101897.31;;;14.55;64.79
7297;BME280;40758;54.038;11.684;2023-05-24T09:38:17;101896.75;;;14.72;64.52
7297;BME280;40758;54.038;11.684;2023-05-24T09:40:44;101889.69;;;14.89;64.28
7297;BME280;40758;54.038;11.684;2023-05-24T09:43:13;101897.88;;;15.21;63.61
7297;BME280;40758;54.038;11.684;2023-05-24T09:45:41;101871.88;;;15.30;63.42
7297;BME280;40758;54.038;11.684;2023-05-24T09:48:13;101891.97;;;15.42;62.79
7297;BME280;40758;54.038;11.684;2023-05-24T09:50:41;101895.25;;;15.51;62.00
7297;BME280;40758;54.038;11.684;2023-05-24T09:53:09;101905.53;;;15.55;61.33
7297;BME280;40758;54.038;11.684;2023-05-24T09:55:36;101886.50;;;15.42;60.87
7297;BME280;40758;54.038;11.684;2023-05-24T09:58:05;101911.22;;;15.54;60.94
7297;BME280;40758;54.038;11.684;2023-05-24T10:00:39;101911.28;;;15.47;60.72
7297;BME280;40758;54.038;11.684;2023-05-24T10:03:10;101888.44;;;15.60;61.03
7297;BME280;40758;54.038;11.684;2023-05-24T10:05:42;101910.31;;;16.63;61.23
7297;BME280;40758;54.038;11.684;2023-05-24T10:08:11;101898.91;;;16.66;60.03
7297;BME280;40758;54.038;11.684;2023-05-24T10:10:40;101909.19;;;16.22;58.23
7297;BME280;40758;54.038;11.684;2023-05-24T10:13:08;101910.75;;;15.63;58.50
7297;BME280;40758;54.038;11.684;2023-05-24T10:15:35;101905.25;;;15.20;58.42
7297;BME280;40758;54.038;11.684;2023-05-24T10:18:03;101908.56;;;15.22;59.96
7297;BME280;40758;54.038;11.684;2023-05-24T10:20:36;101923.25;;;15.28;59.69
7297;BME280;40758;54.038;11.684;2023-05-24T10:23:06;101919.22;;;15.55;59.35
7297;BME280;40758;54.038;11.684;2023-05-24T10:25:41;101920.19;;;15.86;59.80
7297;BME280;40758;54.038;11.684;2023-05-24T10:28:12;101923.00;;;15.98;59.90
7297;BME280;40758;54.038;11.684;2023-05-24T10:30:47;101921.63;;;15.88;59.42
7297;BME280;40758;54.038;11.684;2023-05-24T10:33:20;101929.00;;;15.88;60.30
7297;BME280;40758;54.038;11.684;2023-05-24T10:35:49;101924.81;;;16.04;59.08
7297;BME280;40758;54.038;11.684;2023-05-24T10:38:19;101918.66;;;16.08;59.34
7297;BME280;40758;54.038;11.684;2023-05-24T10:40:47;101924.03;;;16.63;59.92
7297;BME280;40758;54.038;11.684;2023-05-24T10:43:16;101924.38;;;16.85;59.32
7297;BME280;40758;54.038;11.684;2023-05-24T10:45:47;101924.81;;;17.36;58.49
7297;BME280;40758;54.038;11.684;2023-05-24T10:50:42;101926.25;;;17.97;55.68
7297;BME280;40758;54.038;11.684;2023-05-24T10:53:14;101923.38;;;18.32;55.18
7297;BME280;40758;54.038;11.684;2023-05-24T10:55:58;101920.06;;;18.30;51.78
7297;BME280;40758;54.038;11.684;2023-05-24T11:00:58;101918.97;;;18.59;51.82
7297;BME280;40758;54.038;11.684;2023-05-24T11:03:31;101919.75;;;19.00;51.93
7297;BME280;40758;54.038;11.684;2023-05-24T11:05:58;101932.69;;;19.50;51.31
7297;BME280;40758;54.038;11.684;2023-05-24T11:08:30;101932.41;;;19.85;50.62
7297;BME280;40758;54.038;11.684;2023-05-24T11:11:09;101915.28;;;19.83;49.36
7297;BME280;40758;54.038;11.684;2023-05-24T11:13:40;101928.53;;;19.14;47.60
7297;BME280;40758;54.038;11.684;2023-05-24T11:16:08;101922.41;;;18.50;49.05
7297;BME280;40758;54.038;11.684;2023-05-24T11:18:38;101918.44;;;18.17;49.98
7297;BME280;40758;54.038;11.684;2023-05-24T11:21:05;101928.50;;;18.12;50.96
7297;BME280;40758;54.038;11.684;2023-05-24T11:23:34;101915.91;;;18.56;52.26
7297;BME280;40758;54.038;11.684;2023-05-24T11:26:05;101920.34;;;19.02;51.37
7297;BME280;40758;54.038;11.684;2023-05-24T11:28:35;101918.38;;;19.53;50.38
7297;BME280;40758;54.038;11.684;2023-05-24T11:31:07;101915.53;;;19.82;48.82
7297;BME280;40758;54.038;11.684;2023-05-24T11:33:40;101913.56;;;19.99;48.28
7297;BME280;40758;54.038;11.684;2023-05-24T11:36:09;101910.16;;;20.14;47.77
7297;BME280;40758;54.038;11.684;2023-05-24T11:38:36;101904.59;;;20.09;46.80
7297;BME280;40758;54.038;11.684;2023-05-24T11:41:03;101921.47;;;20.39;47.30
7297;BME280;40758;54.038;11.684;2023-05-24T11:43:30;101937.00;;;19.46;45.56
7297;BME280;40758;54.038;11.684;2023-05-24T11:45:57;101927.66;;;18.51;46.67
7297;BME280;40758;54.038;11.684;2023-05-24T11:48:24;101939.34;;;18.18;48.00
7297;BME280;40758;54.038;11.684;2023-05-24T11:50:51;101924.72;;;18.29;49.10
7297;BME280;40758;54.038;11.684;2023-05-24T11:53:19;101936.78;;;18.97;49.28
7297;BME280;40758;54.038;11.684;2023-05-24T11:55:46;101931.59;;;19.01;48.04
7297;BME280;40758;54.038;11.684;2023-05-24T11:58:28;101939.88;;;18.32;47.21
7297;BME280;40758;54.038;11.684;2023-05-24T12:00:58;101946.22;;;17.92;48.67
7297;BME280;40758;54.038;11.684;2023-05-24T12:03:25;101945.00;;;18.00;49.28
7297;BME280;40758;54.038;11.684;2023-05-24T12:05:55;101944.84;;;18.18;48.83
7297;BME280;40758;54.038;11.684;2023-05-24T12:08:22;101941.69;;;18.38;48.78
7297;BME280;40758;54.038;11.684;2023-05-24T12:10:49;101950.00;;;18.83;48.99
7297;BME280;40758;54.038;11.684;2023-05-24T12:13:23;101930.94;;;19.10;47.67
7297;BME280;40758;54.038;11.684;2023-05-24T12:15:52;101944.63;;;19.39;46.75
7297;BME280;40758;54.038;11.684;2023-05-24T12:18:23;101947.03;;;19.69;46.26
7297;BME280;40758;54.038;11.684;2023-05-24T12:20:51;101949.03;;;19.74;45.15
7297;BME280;40758;54.038;11.684;2023-05-24T12:23:20;101953.28;;;19.48;43.70
7297;BME280;40758;54.038;11.684;2023-05-24T12:25:49;101948.88;;;19.47;44.60
7297;BME280;40758;54.038;11.684;2023-05-24T12:28:19;101944.19;;;18.97;43.31
7297;BME280;40758;54.038;11.684;2023-05-24T12:30:48;101936.38;;;18.48;43.14
7297;BME280;40758;54.038;11.684;2023-05-24T12:33:17;101949.94;;;17.86;44.41
7297;BME280;40758;54.038;11.684;2023-05-24T12:35:45;101933.44;;;18.38;46.78
7297;BME280;40758;54.038;11.684;2023-05-24T12:38:12;101951.53;;;18.91;47.58
7297;BME280;40758;54.038;11.684;2023-05-24T12:40:41;101954.91;;;19.44;47.39
7297;BME280;40758;54.038;11.684;2023-05-24T12:43:13;101950.69;;;19.58;46.13
7297;BME280;40758;54.038;11.684;2023-05-24T12:45:41;101958.88;;;19.53;45.92
7297;BME280;40758;54.038;11.684;2023-05-24T12:48:08;101961.16;;;19.56;45.99
7297;BME280;40758;54.038;11.684;2023-05-24T12:50:36;101963.25;;;19.49;45.50
7297;BME280;40758;54.038;11.684;2023-05-24T12:53:03;101966.56;;;19.17;46.02
7297;BME280;40758;54.038;11.684;2023-05-24T12:55:30;101964.84;;;18.82;46.38
7297;BME280;40758;54.038;11.684;2023-05-24T12:57:57;101966.63;;;18.48;46.47
7297;BME280;40758;54.038;11.684;2023-05-24T13:00:25;101964.16;;;18.75;48.24
7297;BME280;40758;54.038;11.684;2023-05-24T13:02:53;101967.91;;;19.14;47.84
7297;BME280;40758;54.038;11.684;2023-05-24T13:05:22;101974.66;;;19.57;47.06
7297;BME280;40758;54.038;11.684;2023-05-24T13:07:51;101966.41;;;20.13;45.72
7297;BME280;40758;54.038;11.684;2023-05-24T13:10:19;101967.72;;;20.49;44.60
7297;BME280;40758;54.038;11.684;2023-05-24T13:12:46;101963.38;;;20.58;43.67
7297;BME280;40758;54.038;11.684;2023-05-24T13:15:13;101958.00;;;20.25;42.66
7297;BME280;40758;54.038;11.684;2023-05-24T13:17:41;101966.97;;;20.15;42.62
7297;BME280;40758;54.038;11.684;2023-05-24T13:20:08;101967.31;;;20.18;42.49
7297;BME280;40758;54.038;11.684;2023-05-24T13:22:37;101958.84;;;20.25;42.54